Main page
METAR-TAF:

METAR-TAF

Airports :

Pocono Mountains Municipal Airport

Mount Pocono, Pennsylvania, United States

latitude: 41-08-20N, longitude: 075-23-46W, elevation: 1916 ft

Current weather observation

The report was made 36 minutes ago, at 20:53 UTC
Wind 18 mph from the Northwest
Temperature 45°F
Humidity 45%
Pressure 29.72 in. Hg
Visibility: 10 miles
Broken clouds at a height of 4900 ft

METAR: KMPO 012053Z AUTO 32016KT 10SM BKN049 07/M04 A2972 RMK AO2 SLP076 T00721044 56008

Time: 17:29 (21:29 UTC)


TAF: missing

Weather observations and forecasts of more than 4000 airports (METAR and TAF reports).

The available stations are represented by yellow and red dots on the map.

Hover mouse over dot to see the name of the station.

Then click to see weather observations and forecasts.

To change the map : click on the green buttons with a black cross to zoom in, on the green button with a dash to zoom out, or on the green arrows for adjacent maps.


METAR-TAF: